Boa Tyr — LAMU — position and weather

sailwx.info

Track history (hours):
 
Tides and Currents Weather Stations Pressure Air Temp Water Temp Dewpoint Dewpoint Depression Visibility Wind Speed Wind Dir Waves Ship Positions

Boa Tyr

Last reported at 2014-Dec-27 07:34 UTC. Time now 2015-Jan-27 05:52 UTC.
Position N 70°41' E 023°26'.
Warning: this ship's position is 30 days out of date.

Length 33 m; draft 4.8 m.

Type: Tug. MMSI: 258395000.

Date/timePositionNaut miles runAvg speedWind from/ knotsBaromVisibWave heightAir tempDewpointWater temp
2014-Dec-27 07:34N 70°41' E 023°26'1110.9
2014-Dec-27 06:33N 70°33' E 023°03'1210.6
2014-Dec-27 05:26N 70°28' E 022°30'86 9.7
2014-Dec-26 20:33N 69°40' E 018°59'153 8.8
2014-Dec-26 03:16N 67°42' E 014°31'16 9.2
2014-Dec-26 01:33N 67°26' E 014°29'9 9.5
2014-Dec-26 00:34N 67°18' E 014°17'10 9.6
2014-Dec-25 23:34N 67°10' E 014°04'1310.1
2014-Dec-25 22:14N 67°00' E 013°40'20 9.5
2014-Dec-25 20:04N 66°43' E 013°11'8 9.7
2014-Dec-25 19:18N 66°36' E 013°04'7 9.1
2014-Dec-25 18:33N 66°30' E 012°58'9 8.5
2014-Dec-25 17:32N 66°21' E 012°57'1010.1
2014-Dec-25 16:33N 66°12' E 012°52'1010.0
2014-Dec-25 15:33N 66°03' E 012°39'2 1.9
2014-Dec-25 14:29N 66°01' E 012°38'0 0.0
2014-Dec-25 13:29N 66°01' E 012°38'0 0.0
2014-Dec-25 12:26N 66°01' E 012°38'0 0.0
2014-Dec-25 10:32N 66°01' E 012°38'0 0.0
2014-Dec-25 09:28N 66°01' E 012°38'0 0.0
2014-Dec-25 08:30N 66°01' E 012°38'0 0.0
2014-Dec-25 07:30N 66°01' E 012°38'0 0.0
2014-Dec-25 06:26N 66°01' E 012°38'0 0.0
2014-Dec-24 14:19N 66°01' E 012°38'65 2.3
2014-Dec-23 10:34N 65°01' E 011°40'9 8.9
2014-Dec-23 09:34N 64°55' E 011°24'5 5.2
2014-Dec-23 08:33N 64°52' E 011°15'0 0.0
2014-Dec-23 07:34N 64°52' E 011°15'0 0.0
2014-Dec-23 06:33N 64°52' E 011°15'0 0.0
2014-Dec-23 05:34N 64°52' E 011°15'0 0.0
2014-Dec-23 04:34N 64°52' E 011°15'0 0.0
2014-Dec-23 03:33N 64°52' E 011°15'0 0.0
2014-Dec-23 02:34N 64°52' E 011°15'0 0.0
2014-Dec-23 01:34N 64°52' E 011°15'0 0.0
2014-Dec-23 00:33N 64°52' E 011°15'0 0.0
2014-Dec-22 23:34N 64°52' E 011°15'0 0.0
2014-Dec-22 22:33N 64°52' E 011°15'0 0.0
2014-Dec-22 21:34N 64°52' E 011°15'0 0.0
2014-Dec-22 20:33N 64°52' E 011°15'0 0.0
2014-Dec-22 19:34N 64°52' E 011°15'6 5.8
2014-Dec-22 18:27N 64°47' E 011°04'76 2.9
2014-Dec-21 16:27N 63°43' E 009°31'61 7.3
2014-Dec-21 08:04N 63°07' E 007°41'55 5.1
2014-Dec-20 21:24N 63°35' E 009°25'7 6.9
2014-Dec-20 20:22N 63°42' E 009°30'82 6.4
2014-Dec-20 07:33N 64°51' E 011°13'1 0.6
2014-Dec-20 06:33N 64°52' E 011°14'6 6.1
2014-Dec-20 05:33N 64°47' E 011°04'61 3.0
2014-Dec-19 09:04N 63°46' E 011°16'  
Track history (hours):
 
Tides and Currents Weather Stations Pressure Air Temp Water Temp Dewpoint Dewpoint Depression Visibility Wind Speed Wind Dir Waves Ship Positions

Boa Tyr

Last reported at 2014-Dec-27 07:34 UTC. Time now 2015-Jan-27 05:52 UTC.
Position N 70°41' E 023°26'.
Warning: this ship's position is 30 days out of date.

Length 33 m; draft 4.8 m.

Type: Tug. MMSI: 258395000.

Date/timePositionNaut miles runAvg speedWind from/ knotsBaromVisibWave heightAir tempDewpointWater temp
2014-Dec-27 07:34N 70°41' E 023°26'1110.9
2014-Dec-27 06:33N 70°33' E 023°03'1210.6
2014-Dec-27 05:26N 70°28' E 022°30'86 9.7
2014-Dec-26 20:33N 69°40' E 018°59'153 8.8
2014-Dec-26 03:16N 67°42' E 014°31'16 9.2
2014-Dec-26 01:33N 67°26' E 014°29'9 9.5
2014-Dec-26 00:34N 67°18' E 014°17'10 9.6
2014-Dec-25 23:34N 67°10' E 014°04'1310.1
2014-Dec-25 22:14N 67°00' E 013°40'20 9.5
2014-Dec-25 20:04N 66°43' E 013°11'8 9.7
2014-Dec-25 19:18N 66°36' E 013°04'7 9.1
2014-Dec-25 18:33N 66°30' E 012°58'9 8.5
2014-Dec-25 17:32N 66°21' E 012°57'1010.1
2014-Dec-25 16:33N 66°12' E 012°52'1010.0
2014-Dec-25 15:33N 66°03' E 012°39'2 1.9
2014-Dec-25 14:29N 66°01' E 012°38'0 0.0
2014-Dec-25 13:29N 66°01' E 012°38'0 0.0
2014-Dec-25 12:26N 66°01' E 012°38'0 0.0
2014-Dec-25 10:32N 66°01' E 012°38'0 0.0
2014-Dec-25 09:28N 66°01' E 012°38'0 0.0
2014-Dec-25 08:30N 66°01' E 012°38'0 0.0
2014-Dec-25 07:30N 66°01' E 012°38'0 0.0
2014-Dec-25 06:26N 66°01' E 012°38'0 0.0
2014-Dec-24 14:19N 66°01' E 012°38'65 2.3
2014-Dec-23 10:34N 65°01' E 011°40'9 8.9
2014-Dec-23 09:34N 64°55' E 011°24'5 5.2
2014-Dec-23 08:33N 64°52' E 011°15'0 0.0
2014-Dec-23 07:34N 64°52' E 011°15'0 0.0
2014-Dec-23 06:33N 64°52' E 011°15'0 0.0
2014-Dec-23 05:34N 64°52' E 011°15'0 0.0
2014-Dec-23 04:34N 64°52' E 011°15'0 0.0
2014-Dec-23 03:33N 64°52' E 011°15'0 0.0
2014-Dec-23 02:34N 64°52' E 011°15'0 0.0
2014-Dec-23 01:34N 64°52' E 011°15'0 0.0
2014-Dec-23 00:33N 64°52' E 011°15'0 0.0
2014-Dec-22 23:34N 64°52' E 011°15'0 0.0
2014-Dec-22 22:33N 64°52' E 011°15'0 0.0
2014-Dec-22 21:34N 64°52' E 011°15'0 0.0
2014-Dec-22 20:33N 64°52' E 011°15'0 0.0
2014-Dec-22 19:34N 64°52' E 011°15'6 5.8
2014-Dec-22 18:27N 64°47' E 011°04'76 2.9
2014-Dec-21 16:27N 63°43' E 009°31'61 7.3
2014-Dec-21 08:04N 63°07' E 007°41'55 5.1
2014-Dec-20 21:24N 63°35' E 009°25'7 6.9
2014-Dec-20 20:22N 63°42' E 009°30'82 6.4
2014-Dec-20 07:33N 64°51' E 011°13'1 0.6
2014-Dec-20 06:33N 64°52' E 011°14'6 6.1
2014-Dec-20 05:33N 64°47' E 011°04'61 3.0
2014-Dec-19 09:04N 63°46' E 011°16'  

Dump ship's entire track history